Aviation Digital Data Service (ADDS)

Output produced by METARs form (2238 UTC 30 March 2017)
found at http://www.aviationweather.gov/adds/metars/
 
EHKD 302225Z AUTO 16006KT 9999 NCD 13/09 Q1017 BLU
TAF EHKD 301647Z 3017/3105 22010KT CAVOK 
     BECMG 3019/3021 15008KT
       
EHDL 302225Z AUTO 14007KT 100V180 9999 NCD 14/08 Q1019 BLU
TAF EHDL 301652Z 3017/3105 20007KT CAVOK 
     BECMG 3019/3021 14007KT
       
EHGG 302225Z AUTO 17007KT 9999 NCD 14/09 Q1018
TAF EHGG 301708Z 3018/3124 21007KT CAVOK 
     BECMG 3112/3115 26012KT 
     PROB30 
     TEMPO 3116/3124 6000 SHRA SCT040CB 
     BECMG 3118/3121 22005KT
       
EHEH 302225Z AUTO 15005KT 9999 NCD 15/08 Q1018 BLU
TAF EHEH 301700Z 3018/3124 20005KT CAVOK 
     BECMG 3020/3022 14007KT 
     BECMG 3107/3110 21012KT 
     TEMPO 3122/3124 SCT015
       
EHGR 302225Z AUTO 14006KT 9999 OVC160 14/08 Q1018 BLU
TAF EHGR 301654Z 3017/3105 17008KT CAVOK
       
EHLW 302225Z AUTO 17007KT 130V190 9999 OVC330 15/09 Q1018 BLU
EHBK 302225Z AUTO 15008KT 9999 NSC 14/07 Q1019
TAF EHBK 301708Z 3018/3124 16008KT CAVOK 
     BECMG 3106/3109 21012G22KT 
     PROB30 
     TEMPO 3118/3124 6000 SHRA SCT040CB 
     BECMG 3120/3123 27007KT
       
EHRD 302225Z AUTO 15006KT 9999 NSC 17/09 Q1017 NOSIG
TAF EHRD 301652Z 3018/3124 16008KT CAVOK 
     BECMG 3107/3110 20011KT 
     BECMG 3112/3115 25012KT 
     PROB30 
     TEMPO 3114/3124 6000 SHRA SCT040CB 
     BECMG 3116/3119 23006KT
       
EHAM 302225Z 14009KT CAVOK 15/09 Q1017 NOSIG
TAF EHAM 301648Z 3018/3124 16008KT CAVOK 
     BECMG 3107/3110 20011KT 
     BECMG 3112/3115 25012KT 
     PROB30 
     TEMPO 3114/3124 6000 SHRA SCT040CB 
     BECMG 3116/3119 23006KT
       
EHVK 302225Z AUTO 14006KT 9999 FEW370 15/08 Q1018 BLU
EHWO 302225Z AUTO 14003KT 110V170 9999 OVC170 15/08 Q1017 BLU